Time;durP1;ratioP1;P1;durP2;ratioP2;P2;SDS_P1;SDS_P2;PMS_P1;PMS_P2;Temp;Humidity;BMP_temperature;BMP_pressure;BME280_temperature;BME280_humidity;BME280_pressure;Samples;Min_cycle;Max_cycle;Signal;HPM_P1;HPM_P2
2023/02/14 00:00:20;;;;;;;15.05;8.68;;;21.20;38.60;;;;;;5065151;28;20101;-61
2023/02/14 00:02:48;;;;;;;8.90;8.00;;;21.20;38.70;;;;;;5065000;28;20049;-61
2023/02/14 00:05:16;;;;;;;11.75;8.10;;;21.20;38.80;;;;;;5065279;28;20419;-62
2023/02/14 00:07:44;;;;;;;11.80;8.40;;;21.20;38.90;;;;;;5065260;28;20040;-61
2023/02/14 00:10:11;;;;;;;11.02;8.35;;;21.20;38.90;;;;;;5064324;28;20127;-60
2023/02/14 00:12:39;;;;;;;13.13;9.43;;;21.20;39.00;;;;;;5064975;28;20101;-60
2023/02/14 00:15:24;;;;;;;13.20;7.97;;;21.10;39.10;;;;;;5064766;28;20063;-61
2023/02/14 00:17:53;;;;;;;15.43;9.57;;;21.10;39.20;;;;;;5065152;28;20052;-60
2023/02/14 00:20:21;;;;;;;9.88;7.82;;;21.10;39.30;;;;;;5074692;28;20534;-61
2023/02/14 00:22:50;;;;;;;8.55;7.63;;;21.10;39.40;;;;;;5087971;28;20054;-61
2023/02/14 00:25:17;;;;;;;12.98;8.48;;;21.10;39.60;;;;;;5076520;28;20047;-61
2023/02/14 00:27:44;;;;;;;12.75;8.68;;;21.00;39.60;;;;;;5069056;28;20057;-60
2023/02/14 00:30:13;;;;;;;10.80;8.25;;;21.00;39.70;;;;;;5069135;28;20036;-61
2023/02/14 00:32:42;;;;;;;12.55;9.50;;;21.00;39.80;;;;;;5068973;28;20102;-61
2023/02/14 00:35:10;;;;;;;11.80;8.48;;;21.00;39.90;;;;;;5069145;28;20043;-61
2023/02/14 00:37:41;;;;;;;10.30;8.00;;;21.00;40.00;;;;;;5069070;28;20086;-61
2023/02/14 00:40:10;;;;;;;8.50;7.65;;;21.00;40.00;;;;;;5068164;28;20088;-62
2023/02/14 00:42:39;;;;;;;10.93;8.35;;;21.00;40.10;;;;;;5068796;28;20133;-60
2023/02/14 00:45:07;;;;;;;8.77;7.93;;;20.90;40.10;;;;;;5050662;28;20447;-61
2023/02/14 00:47:36;;;;;;;11.15;8.93;;;20.90;40.30;;;;;;5051074;28;20124;-62
2023/02/14 00:50:05;;;;;;;11.90;9.05;;;20.90;40.30;;;;;;5050798;28;20049;-63
2023/02/14 00:52:32;;;;;;;13.68;8.60;;;20.90;40.50;;;;;;5068510;28;20047;-62
2023/02/14 00:54:59;;;;;;;10.68;8.10;;;20.90;40.40;;;;;;5049850;28;20049;-60
2023/02/14 00:57:27;;;;;;;12.60;7.13;;;20.90;40.40;;;;;;5050332;28;20246;-61
2023/02/14 00:59:54;;;;;;;12.15;9.15;;;20.90;40.50;;;;;;5075709;28;20082;-60
2023/02/14 01:02:21;;;;;;;10.77;8.35;;;20.90;40.50;;;;;;5070490;28;20509;-61
2023/02/14 01:04:49;;;;;;;11.25;8.65;;;20.80;40.50;;;;;;5088717;28;20424;-62
2023/02/14 01:07:17;;;;;;;12.00;8.02;;;20.80;40.70;;;;;;5088573;28;20075;-63
2023/02/14 01:09:44;;;;;;;11.63;7.82;;;20.80;40.60;;;;;;5087785;28;20123;-63
2023/02/14 01:12:11;;;;;;;10.07;7.38;;;20.80;40.70;;;;;;5088136;28;20036;-63
2023/02/14 01:14:39;;;;;;;13.75;9.00;;;20.80;40.70;;;;;;5088051;28;20402;-62
2023/02/14 01:17:06;;;;;;;11.60;8.23;;;20.80;40.80;;;;;;5088502;28;20568;-62
2023/02/14 01:19:35;;;;;;;11.52;8.55;;;20.80;40.90;;;;;;5066878;28;20044;-62
2023/02/14 01:22:02;;;;;;;11.07;9.13;;;20.70;40.90;;;;;;5049892;28;20106;-62
2023/02/14 01:24:29;;;;;;;11.98;9.55;;;20.70;41.00;;;;;;5066273;28;20068;-62
2023/02/14 01:26:57;;;;;;;9.40;8.32;;;20.70;41.10;;;;;;5075144;28;20043;-62
2023/02/14 01:29:25;;;;;;;10.25;7.45;;;20.70;41.10;;;;;;5086453;28;20052;-62
2023/02/14 01:31:55;;;;;;;10.20;8.48;;;20.70;41.10;;;;;;5085803;28;20567;-64
2023/02/14 01:34:25;;;;;;;12.73;8.23;;;20.70;41.10;;;;;;5083365;28;20120;-64
2023/02/14 01:36:52;;;;;;;11.77;8.52;;;20.70;41.10;;;;;;5068714;28;20050;-62
2023/02/14 01:39:19;;;;;;;11.32;8.98;;;20.70;41.20;;;;;;5087975;28;20048;-63
2023/02/14 01:41:48;;;;;;;9.73;8.70;;;20.60;41.20;;;;;;5087475;28;20044;-62
2023/02/14 01:44:52;;;;;;;16.73;7.82;;;20.70;41.30;;;;;;5088015;28;20087;-62
2023/02/14 01:47:22;;;;;;;11.32;9.60;;;20.70;41.30;;;;;;5085200;28;20490;-61
2023/02/14 01:49:52;;;;;;;12.00;9.23;;;20.60;41.30;;;;;;5088257;28;20055;-63
2023/02/14 01:52:23;;;;;;;12.40;8.63;;;20.60;41.40;;;;;;5069349;28;20059;-62
2023/02/14 01:54:54;;;;;;;14.57;9.68;;;20.60;41.40;;;;;;5056093;28;20049;-62
2023/02/14 01:57:24;;;;;;;9.80;8.30;;;20.60;41.40;;;;;;5067557;28;20036;-62
2023/02/14 01:59:55;;;;;;;9.73;7.60;;;20.60;41.40;;;;;;5067625;28;20754;-62
2023/02/14 02:02:23;;;;;;;12.25;8.68;;;20.50;41.30;;;;;;5049536;28;20041;-63
2023/02/14 02:04:55;;;;;;;9.88;8.27;;;20.50;41.40;;;;;;5067555;28;20044;-63
2023/02/14 02:07:29;;;;;;;10.85;8.90;;;20.50;41.40;;;;;;5049292;28;20127;-63
2023/02/14 02:10:02;;;;;;;11.43;9.07;;;20.50;41.30;;;;;;5067572;28;20043;-64
2023/02/14 02:12:29;;;;;;;14.88;9.00;;;20.60;41.50;;;;;;5049413;28;20047;-63
2023/02/14 02:14:59;;;;;;;13.93;9.25;;;20.50;41.40;;;;;;5049375;28;20044;-61
2023/02/14 02:17:34;;;;;;;11.40;8.93;;;20.50;41.40;;;;;;5049575;28;20128;-64
2023/02/14 02:20:28;;;;;;;13.15;8.13;;;20.50;41.40;;;;;;5049068;28;20039;-64
2023/02/14 02:24:03;;;;;;;12.52;8.40;;;20.50;41.40;;;;;;5049027;28;20535;-62
2023/02/14 02:26:52;;;;;;;9.85;8.18;;;20.50;41.40;;;;;;5004397;28;20042;-64
2023/02/14 02:30:04;;;;;;;12.27;8.75;;;20.40;41.60;;;;;;4988143;28;20042;-64
2023/02/14 02:33:03;;;;;;;9.32;8.38;;;20.40;41.70;;;;;;5004985;28;20045;-63
2023/02/14 02:36:05;;;;;;;10.10;9.10;;;20.40;41.80;;;;;;5004745;28;20057;-63
2023/02/14 02:38:57;;;;;;;10.90;8.10;;;20.40;41.90;;;;;;5004408;28;20836;-64
2023/02/14 02:41:37;;;;;;;15.77;9.90;;;20.40;42.00;;;;;;4976386;28;20065;-63
2023/02/14 02:44:12;;;;;;;14.93;9.23;;;20.40;42.00;;;;;;4987526;28;20076;-62
2023/02/14 02:46:49;;;;;;;12.57;9.95;;;20.30;42.10;;;;;;5004639;28;20074;-62
2023/02/14 02:55:27;;;;;;;17.20;9.80;;;20.40;42.40;;;;;;4987389;28;20873;-62
2023/02/14 02:57:55;;;;;;;9.50;8.00;;;20.30;42.40;;;;;;5004161;28;20073;-63
2023/02/14 03:00:24;;;;;;;12.00;8.77;;;20.30;42.50;;;;;;5017412;28;20424;-62
2023/02/14 03:05:43;;;;;;;13.40;10.38;;;20.30;42.60;;;;;;5066100;28;20093;-62
2023/02/14 03:08:12;;;;;;;11.70;8.70;;;20.30;42.60;;;;;;5064728;28;20037;-63
2023/02/14 03:10:40;;;;;;;13.40;9.75;;;20.30;42.70;;;;;;5064441;28;20161;-65
2023/02/14 03:13:42;;;;;;;11.90;9.45;;;20.30;42.70;;;;;;5046397;28;20053;-63
2023/02/14 03:16:27;;;;;;;12.85;9.95;;;20.30;42.60;;;;;;5046622;28;20167;-63
2023/02/14 03:19:26;;;;;;;10.25;8.23;;;20.30;42.60;;;;;;5064153;28;20068;-63
2023/02/14 03:21:59;;;;;;;10.30;9.05;;;20.30;42.70;;;;;;5057754;28;20052;-63
2023/02/14 03:24:35;;;;;;;11.23;8.07;;;20.30;42.70;;;;;;5064341;28;20045;-62
2023/02/14 03:27:10;;;;;;;10.05;9.02;;;20.30;42.70;;;;;;5046085;28;20040;-63
2023/02/14 03:29:49;;;;;;;15.00;11.10;;;20.20;42.60;;;;;;5073418;28;20455;-62
2023/02/14 03:32:28;;;;;;;12.65;9.60;;;20.30;42.70;;;;;;5066450;28;20753;-62
2023/02/14 03:35:00;;;;;;;12.00;9.43;;;20.20;42.70;;;;;;5084220;28;20044;-62
2023/02/14 03:37:33;;;;;;;12.95;11.30;;;20.20;42.70;;;;;;5086294;28;20141;-63
2023/02/14 03:40:09;;;;;;;9.35;8.05;;;20.20;42.70;;;;;;5067672;28;20047;-62
2023/02/14 03:42:43;;;;;;;12.43;9.52;;;20.20;42.70;;;;;;5066042;28;20065;-63
2023/02/14 03:45:23;;;;;;;11.35;8.55;;;20.20;42.70;;;;;;5067054;28;20829;-62
2023/02/14 03:47:53;;;;;;;16.02;10.15;;;20.20;42.70;;;;;;5085843;28;20508;-62
2023/02/14 03:50:20;;;;;;;12.20;9.60;;;20.20;42.70;;;;;;5082456;28;20090;-60
2023/02/14 03:52:51;;;;;;;11.90;9.55;;;20.20;42.70;;;;;;5085446;28;20054;-62
2023/02/14 03:55:26;;;;;;;13.77;9.40;;;20.20;42.80;;;;;;5085402;28;20059;-61
2023/02/14 03:57:58;;;;;;;10.02;8.95;;;20.20;42.80;;;;;;5085770;28;20101;-60
2023/02/14 04:00:27;;;;;;;12.07;9.25;;;20.20;42.90;;;;;;5085524;28;20097;-61
2023/02/14 04:02:59;;;;;;;14.13;8.85;;;20.10;42.80;;;;;;5085395;28;20513;-62
2023/02/14 04:05:28;;;;;;;16.77;10.95;;;20.10;42.90;;;;;;5085572;28;20040;-61
2023/02/14 04:07:57;;;;;;;10.95;8.63;;;20.10;42.80;;;;;;5086078;28;20048;-62
2023/02/14 04:10:26;;;;;;;14.05;9.80;;;20.10;42.90;;;;;;5085293;28;20052;-62
2023/02/14 04:12:53;;;;;;;14.15;9.00;;;20.10;42.90;;;;;;5086008;28;20102;-62
2023/02/14 04:15:20;;;;;;;14.13;9.85;;;20.10;42.80;;;;;;5085700;28;20105;-62
2023/02/14 04:20:33;;;;;;;16.15;10.52;;;20.10;42.80;;;;;;5082782;28;20076;-62
2023/02/14 04:23:00;;;;;;;11.50;9.57;;;20.10;42.80;;;;;;5074695;28;20032;-62
2023/02/14 04:25:30;;;;;;;12.88;8.48;;;20.10;42.90;;;;;;5065037;28;20084;-61
2023/02/14 04:27:57;;;;;;;10.45;9.20;;;20.10;42.80;;;;;;5065550;28;20525;-62
2023/02/14 04:30:25;;;;;;;13.85;9.75;;;20.10;42.80;;;;;;5081070;28;20131;-62
2023/02/14 04:32:52;;;;;;;13.80;9.75;;;20.00;42.70;;;;;;5085467;28;20122;-61
2023/02/14 04:35:20;;;;;;;12.93;10.32;;;20.00;42.60;;;;;;5085249;28;20368;-61
2023/02/14 04:37:47;;;;;;;12.38;9.90;;;20.10;42.70;;;;;;5085468;28;20242;-61
2023/02/14 04:40:16;;;;;;;11.40;9.40;;;20.10;42.70;;;;;;5067070;28;20144;-61
2023/02/14 04:42:44;;;;;;;12.52;10.43;;;20.00;42.60;;;;;;5085353;28;20052;-61
2023/02/14 04:45:12;;;;;;;10.05;9.02;;;20.00;43.10;;;;;;5085054;28;20134;-60
2023/02/14 04:47:40;;;;;;;12.85;11.18;;;20.00;43.10;;;;;;5085127;28;20040;-61
2023/02/14 04:50:07;;;;;;;10.30;9.13;;;20.00;42.50;;;;;;5085797;28;20084;-61
2023/02/14 04:52:35;;;;;;;12.90;9.48;;;20.00;42.60;;;;;;5085943;28;20048;-61
2023/02/14 04:55:03;;;;;;;11.25;9.20;;;20.00;42.50;;;;;;5075421;28;20048;-61
2023/02/14 04:57:30;;;;;;;12.18;10.15;;;20.00;42.50;;;;;;5064991;28;20040;-61
2023/02/14 04:59:59;;;;;;;14.77;10.52;;;20.00;42.50;;;;;;5065038;28;20053;-63
2023/02/14 05:02:26;;;;;;;11.57;9.00;;;20.00;42.50;;;;;;5046693;28;20447;-63
2023/02/14 05:04:54;;;;;;;12.00;9.60;;;20.00;42.50;;;;;;5030195;28;20050;-63
2023/02/14 05:07:21;;;;;;;13.48;9.77;;;20.00;42.60;;;;;;5065871;28;20076;-63
2023/02/14 05:09:48;;;;;;;13.90;10.45;;;20.00;42.50;;;;;;5068829;28;20525;-63
2023/02/14 05:12:16;;;;;;;11.25;8.68;;;20.00;42.50;;;;;;5068432;28;20037;-64
2023/02/14 05:14:43;;;;;;;11.70;9.30;;;20.00;42.50;;;;;;5050261;28;20044;-63
2023/02/14 05:17:11;;;;;;;12.40;10.50;;;20.00;42.50;;;;;;5068594;28;20124;-62
2023/02/14 05:19:39;;;;;;;14.60;10.48;;;20.00;42.50;;;;;;5050453;28;20047;-63
2023/02/14 05:22:06;;;;;;;11.73;9.15;;;19.90;42.50;;;;;;5068744;28;20047;-62
2023/02/14 05:24:33;;;;;;;17.08;9.82;;;19.90;42.50;;;;;;5068432;28;20060;-60
2023/02/14 05:27:00;;;;;;;10.88;9.75;;;20.00;42.60;;;;;;5050111;28;20051;-60
2023/02/14 05:29:27;;;;;;;11.88;8.95;;;19.90;42.50;;;;;;5057098;28;20241;-62
2023/02/14 05:31:54;;;;;;;9.77;8.77;;;19.90;42.50;;;;;;5088207;28;20583;-61
2023/02/14 05:34:23;;;;;;;12.57;10.02;;;19.90;42.40;;;;;;5088535;28;20577;-62
2023/02/14 05:36:50;;;;;;;9.27;8.20;;;19.90;42.40;;;;;;5088487;28;20131;-61
2023/02/14 05:39:18;;;;;;;11.32;10.15;;;19.90;42.40;;;;;;5088449;28;20121;-62
2023/02/14 05:41:45;;;;;;;13.77;10.95;;;19.90;42.40;;;;;;5087983;28;20036;-61
2023/02/14 05:44:12;;;;;;;11.02;8.88;;;19.90;42.40;;;;;;5084552;28;20076;-61
2023/02/14 05:46:41;;;;;;;10.93;9.43;;;19.90;42.40;;;;;;5086911;28;20427;-61
2023/02/14 05:49:08;;;;;;;11.48;9.25;;;19.90;42.40;;;;;;5085704;28;20126;-60
2023/02/14 05:51:36;;;;;;;12.23;9.57;;;19.90;42.50;;;;;;5087891;28;20525;-61
2023/02/14 05:54:04;;;;;;;12.80;9.57;;;19.90;42.50;;;;;;5086233;28;20039;-61
2023/02/14 05:56:33;;;;;;;13.25;11.88;;;19.90;42.50;;;;;;5049642;28;20052;-61
2023/02/14 05:59:00;;;;;;;12.18;9.45;;;19.90;42.50;;;;;;5067644;28;20089;-61
2023/02/14 06:01:27;;;;;;;11.82;9.70;;;19.90;42.50;;;;;;5067515;28;20067;-62
2023/02/14 06:03:54;;;;;;;14.02;9.38;;;19.80;42.50;;;;;;5067495;28;20477;-59
2023/02/14 06:06:21;;;;;;;12.75;10.23;;;19.90;42.60;;;;;;5067319;28;20060;-62
2023/02/14 06:08:49;;;;;;;15.27;9.93;;;19.80;42.60;;;;;;5067559;28;20467;-62
2023/02/14 06:11:16;;;;;;;14.30;9.85;;;19.80;42.60;;;;;;5067365;28;20461;-62
2023/02/14 06:13:43;;;;;;;13.85;10.80;;;19.80;42.60;;;;;;5049008;28;20091;-61
2023/02/14 06:16:10;;;;;;;13.63;9.27;;;19.80;42.60;;;;;;5048744;28;20136;-60
2023/02/14 06:18:38;;;;;;;11.73;9.65;;;19.80;42.70;;;;;;5066930;28;20102;-61
2023/02/14 06:21:06;;;;;;;12.95;10.20;;;19.80;42.70;;;;;;5066854;28;20049;-60
2023/02/14 06:23:33;;;;;;;14.55;10.18;;;19.80;42.60;;;;;;5066792;28;20075;-61
2023/02/14 06:26:02;;;;;;;18.25;10.73;;;19.80;42.60;;;;;;5068821;28;20064;-60
2023/02/14 06:28:30;;;;;;;17.80;11.02;;;19.80;42.60;;;;;;5086661;28;20046;-62
2023/02/14 06:30:57;;;;;;;12.80;9.95;;;19.80;42.50;;;;;;5066272;28;20120;-61
2023/02/14 06:33:24;;;;;;;15.07;9.20;;;19.80;42.60;;;;;;5066631;28;20040;-61
2023/02/14 06:35:53;;;;;;;13.60;10.13;;;19.80;42.70;;;;;;5048464;28;20524;-60
2023/02/14 06:38:23;;;;;;;17.73;11.05;;;19.80;42.60;;;;;;5066871;28;20048;-60
2023/02/14 06:40:50;;;;;;;11.98;10.63;;;19.80;42.60;;;;;;5066616;28;20041;-60
2023/02/14 06:43:18;;;;;;;13.15;9.80;;;19.80;42.60;;;;;;5066097;28;20506;-61
2023/02/14 06:45:46;;;;;;;16.92;11.27;;;19.80;42.60;;;;;;5066607;28;20056;-60
2023/02/14 06:48:14;;;;;;;15.63;11.52;;;19.80;42.50;;;;;;5066294;28;20044;-62
2023/02/14 06:50:41;;;;;;;13.43;9.98;;;19.80;42.50;;;;;;5066405;28;20044;-62
2023/02/14 06:53:10;;;;;;;16.05;10.25;;;19.80;42.50;;;;;;5066273;28;20079;-63
2023/02/14 06:55:37;;;;;;;14.60;10.30;;;19.80;42.60;;;;;;5066575;28;20416;-60
2023/02/14 06:58:04;;;;;;;12.77;10.68;;;19.80;42.60;;;;;;5065754;28;20056;-62
2023/02/14 07:00:33;;;;;;;15.13;10.75;;;19.70;42.50;;;;;;5066065;28;20057;-62
2023/02/14 07:03:00;;;;;;;12.30;10.10;;;19.80;42.60;;;;;;5065925;28;20044;-62
2023/02/14 07:05:27;;;;;;;15.75;10.75;;;19.70;42.50;;;;;;5065998;28;20509;-62
2023/02/14 07:07:54;;;;;;;13.93;10.32;;;19.70;42.50;;;;;;5065673;28;20079;-61
2023/02/14 07:10:21;;;;;;;12.13;9.95;;;19.70;42.50;;;;;;5065902;28;20036;-62
2023/02/14 07:12:48;;;;;;;12.23;9.75;;;19.70;42.50;;;;;;5065708;28;20089;-61
2023/02/14 07:15:15;;;;;;;14.85;9.75;;;19.70;42.50;;;;;;5065704;28;20128;-62
2023/02/14 07:17:44;;;;;;;11.98;10.45;;;19.70;42.50;;;;;;5066052;28;20143;-62
2023/02/14 07:20:12;;;;;;;13.48;10.23;;;19.70;42.40;;;;;;5065990;28;20043;-62
2023/02/14 07:22:40;;;;;;;13.95;10.68;;;19.70;42.50;;;;;;5065822;28;20044;-62
2023/02/14 07:25:07;;;;;;;11.60;9.88;;;19.70;42.50;;;;;;5065669;28;20420;-61
2023/02/14 07:27:35;;;;;;;14.00;10.85;;;19.70;42.50;;;;;;5065570;28;20048;-62
2023/02/14 07:30:02;;;;;;;14.80;10.40;;;19.70;42.60;;;;;;5077904;28;20550;-62
2023/02/14 07:32:29;;;;;;;14.05;10.18;;;19.70;42.50;;;;;;5085890;28;20036;-61
2023/02/14 07:34:57;;;;;;;20.27;11.82;;;19.70;42.60;;;;;;5085986;28;20072;-60
2023/02/14 07:37:24;;;;;;;12.45;8.98;;;19.70;42.60;;;;;;5086205;28;20036;-61
2023/02/14 07:39:52;;;;;;;14.85;10.18;;;19.70;42.60;;;;;;5085613;28;20050;-60
2023/02/14 07:42:19;;;;;;;12.20;8.68;;;19.70;42.50;;;;;;5085624;28;20067;-61
2023/02/14 07:44:46;;;;;;;18.60;10.05;;;19.70;42.60;;;;;;5082321;28;20132;-66
2023/02/14 07:47:13;;;;;;;17.30;13.55;;;19.70;42.60;;;;;;5085993;28;20129;-67
2023/02/14 07:49:40;;;;;;;20.30;13.43;;;19.70;42.00;;;;;;5081999;28;20122;-69
2023/02/14 07:52:09;;;;;;;22.08;14.05;;;19.70;41.60;;;;;;5086163;28;20114;-66
2023/02/14 07:54:37;;;;;;;16.75;12.65;;;19.70;41.60;;;;;;5077846;28;20044;-66
2023/02/14 07:58:37;;;;;;;21.83;13.77;;;19.70;41.40;;;;;;5099570;27;20427;-67
2023/02/14 08:01:04;;;;;;;23.15;15.48;;;19.70;42.10;;;;;;5091170;28;20032;-67
2023/02/14 08:03:31;;;;;;;23.02;14.02;;;19.60;42.10;;;;;;5088110;28;20044;-65
2023/02/14 08:05:59;;;;;;;29.50;15.82;;;19.60;42.10;;;;;;5093284;28;20109;-62
2023/02/14 08:08:28;;;;;;;21.05;15.30;;;19.60;42.30;;;;;;5091788;28;20586;-64
2023/02/14 08:10:56;;;;;;;20.98;15.10;;;19.60;42.20;;;;;;5093328;28;20520;-62
2023/02/14 08:13:23;;;;;;;25.35;16.63;;;19.60;42.10;;;;;;5086161;28;20427;-61
2023/02/14 08:16:08;;;;;;;22.70;14.57;;;19.60;42.00;;;;;;5090294;28;20048;-62
2023/02/14 08:18:37;;;;;;;21.08;15.32;;;19.70;42.00;;;;;;5088292;28;20128;-62
2023/02/14 08:21:06;;;;;;;21.63;16.45;;;19.70;42.00;;;;;;5087391;28;20044;-62
2023/02/14 08:23:33;;;;;;;23.13;15.23;;;19.80;41.70;;;;;;5091272;28;20072;-53
2023/02/14 08:26:01;;;;;;;18.50;14.73;;;19.80;41.60;;;;;;5094439;28;20031;-57
2023/02/14 08:28:28;;;;;;;22.80;15.80;;;19.90;41.70;;;;;;5090073;28;20060;-56
2023/02/14 08:30:56;;;;;;;27.35;17.75;;;19.90;41.60;;;;;;5083966;28;20504;-59
2023/02/14 08:33:23;;;;;;;22.60;15.75;;;20.00;41.40;;;;;;5081550;28;20085;-59
2023/02/14 08:35:51;;;;;;;19.80;16.30;;;20.00;41.30;;;;;;5081903;28;20074;-55
2023/02/14 08:38:18;;;;;;;22.20;15.38;;;20.10;41.10;;;;;;5081188;28;20516;-58
2023/02/14 08:40:47;;;;;;;21.67;16.60;;;20.20;41.10;;;;;;5081840;28;20127;-59
2023/02/14 08:43:14;;;;;;;22.33;16.08;;;20.20;41.10;;;;;;5081326;28;20040;-60
2023/02/14 08:45:41;;;;;;;19.65;15.38;;;20.30;40.90;;;;;;5081408;28;20043;-64
2023/02/14 08:48:11;;;;;;;23.38;16.25;;;20.30;40.70;;;;;;5081502;28;20127;-61
2023/02/14 08:50:39;;;;;;;23.15;16.55;;;20.40;40.70;;;;;;5075569;28;20576;-61
2023/02/14 08:53:08;;;;;;;20.35;15.18;;;20.50;40.60;;;;;;5081021;28;20060;-55
2023/02/14 08:55:36;;;;;;;24.50;17.00;;;20.50;40.70;;;;;;5081383;28;20048;-54
2023/02/14 08:58:04;;;;;;;17.52;12.70;;;20.60;40.40;;;;;;5065374;28;20527;-56
2023/02/14 09:00:33;;;;;;;27.05;17.10;;;20.60;40.90;;;;;;5070556;28;20660;-70
2023/02/14 09:03:00;;;;;;;21.15;17.05;;;20.70;40.60;;;;;;5079426;28;20050;-72
2023/02/14 09:05:30;;;;;;;22.92;15.52;;;20.70;40.30;;;;;;5079578;28;20539;-70
2023/02/14 09:07:57;;;;;;;19.10;16.20;;;20.70;40.20;;;;;;5077232;28;20527;-67
2023/02/14 09:10:24;;;;;;;24.02;16.45;;;20.70;40.00;;;;;;5065562;28;20147;-67
2023/02/14 09:12:52;;;;;;;17.20;12.48;;;20.80;40.70;;;;;;5066364;28;20047;-65
2023/02/14 09:15:20;;;;;;;24.60;15.15;;;20.80;40.50;;;;;;5066215;28;20044;-62
2023/02/14 09:17:47;;;;;;;24.80;16.50;;;20.90;40.20;;;;;;5066298;28;20515;-60
2023/02/14 09:20:17;;;;;;;21.73;16.17;;;20.90;39.80;;;;;;5065818;28;20046;-59
2023/02/14 09:22:46;;;;;;;23.30;15.80;;;21.00;39.70;;;;;;5065479;28;20068;-58
2023/02/14 09:25:13;;;;;;;21.67;17.83;;;21.00;39.50;;;;;;5065957;28;20041;-59
2023/02/14 09:27:41;;;;;;;17.00;13.20;;;21.00;39.50;;;;;;5065823;28;20057;-60
2023/02/14 09:30:10;;;;;;;29.05;19.90;;;21.10;40.00;;;;;;5065179;28;20139;-59
2023/02/14 09:32:37;;;;;;;28.27;20.00;;;21.20;39.50;;;;;;5060247;28;20045;-59
2023/02/14 09:40:35;;;;;;;21.27;17.63;;;21.30;39.00;;;;;;5045391;28;20051;-59
2023/02/14 09:43:10;;;;;;;22.42;18.58;;;21.30;39.10;;;;;;5051224;28;20062;-60
2023/02/14 09:45:39;;;;;;;29.30;21.17;;;21.40;38.80;;;;;;5086015;28;20075;-61
2023/02/14 09:48:12;;;;;;;21.92;16.88;;;21.40;38.60;;;;;;5085731;28;20042;-61
2023/02/14 09:50:45;;;;;;;20.80;16.05;;;21.40;38.60;;;;;;5085116;28;20044;-61
2023/02/14 09:53:22;;;;;;;26.23;19.63;;;21.50;38.70;;;;;;5083896;28;20482;-64
2023/02/14 09:55:58;;;;;;;21.33;17.88;;;21.60;38.50;;;;;;5061983;28;20452;-66
2023/02/14 09:58:32;;;;;;;23.40;17.60;;;21.60;38.50;;;;;;5065134;28;20064;-63
2023/02/14 10:01:05;;;;;;;19.65;16.05;;;21.60;38.80;;;;;;5065317;28;20362;-62
2023/02/14 10:03:54;;;;;;;25.17;18.60;;;21.60;38.20;;;;;;5065447;28;20041;-63
2023/02/14 10:06:41;;;;;;;16.48;13.55;;;21.70;38.10;;;;;;5064400;28;20044;-62
2023/02/14 10:09:20;;;;;;;24.95;19.02;;;21.70;38.60;;;;;;5064862;28;20067;-64
2023/02/14 10:11:48;;;;;;;19.55;14.35;;;21.70;38.00;;;;;;5064344;28;20517;-63
2023/02/14 10:14:18;;;;;;;22.58;16.63;;;21.80;38.40;;;;;;5064818;28;20041;-63
2023/02/14 10:16:50;;;;;;;23.05;16.73;;;21.80;38.60;;;;;;5065185;28;20044;-62
2023/02/14 10:19:22;;;;;;;22.92;17.85;;;21.80;38.10;;;;;;5063915;28;20469;-62
2023/02/14 10:24:34;;;;;;;29.67;18.38;;;21.90;38.00;;;;;;5112477;27;1238352;-62
2023/02/14 10:27:08;;;;;;;27.45;18.25;;;21.90;38.00;;;;;;5142519;27;20103;-63
2023/02/14 10:29:35;;;;;;;26.52;19.92;;;22.00;37.80;;;;;;5139587;27;20135;-66
2023/02/14 10:32:04;;;;;;;25.70;17.95;;;22.00;37.70;;;;;;5124846;27;20407;-66
2023/02/14 10:34:38;;;;;;;24.75;18.33;;;22.00;37.50;;;;;;5124500;27;20396;-68
2023/02/14 10:37:23;;;;;;;19.48;17.35;;;22.00;37.40;;;;;;5143397;27;20091;-66
2023/02/14 10:40:07;;;;;;;25.90;19.90;;;22.10;37.40;;;;;;5142405;27;20503;-66
2023/02/14 10:42:46;;;;;;;22.80;17.85;;;22.00;37.30;;;;;;5142394;27;20043;-66
2023/02/14 10:45:22;;;;;;;26.02;19.65;;;22.00;37.40;;;;;;5136706;27;20115;-56
2023/02/14 10:47:58;;;;;;;21.67;17.25;;;22.00;37.50;;;;;;5139146;27;20050;-63
2023/02/14 10:50:32;;;;;;;25.23;19.85;;;22.00;37.50;;;;;;5143040;27;20039;-63
2023/02/14 10:53:07;;;;;;;22.20;16.65;;;22.00;37.60;;;;;;5116723;27;20403;-63
2023/02/14 10:55:44;;;;;;;23.27;18.05;;;22.00;37.60;;;;;;5143472;27;20140;-63
2023/02/14 10:58:16;;;;;;;23.13;16.17;;;22.00;37.70;;;;;;5142865;27;20045;-62
2023/02/14 11:00:57;;;;;;;27.50;18.92;;;21.90;37.70;;;;;;5142191;27;20071;-65
2023/02/14 11:03:24;;;;;;;27.63;21.00;;;22.00;37.60;;;;;;5138044;27;20079;-65
2023/02/14 11:05:51;;;;;;;25.00;21.05;;;22.00;37.60;;;;;;5142940;27;20047;-64
2023/02/14 11:08:25;;;;;;;23.13;17.20;;;22.00;37.70;;;;;;5143060;27;20445;-70
2023/02/14 11:10:55;;;;;;;22.65;16.33;;;22.00;37.70;;;;;;5130709;27;20422;-61
2023/02/14 11:13:34;;;;;;;21.85;16.27;;;22.00;37.90;;;;;;5139774;27;20130;-62
2023/02/14 11:16:04;;;;;;;23.65;18.13;;;22.10;37.90;;;;;;5140873;27;20043;-60
2023/02/14 11:18:34;;;;;;;21.55;16.92;;;22.10;37.90;;;;;;5140950;27;20442;-58
2023/02/14 11:21:08;;;;;;;27.98;16.75;;;22.10;38.00;;;;;;5140597;27;20595;-60
2023/02/14 11:23:38;;;;;;;23.02;16.33;;;22.20;38.00;;;;;;5140514;27;20070;-58
2023/02/14 11:26:11;;;;;;;22.67;17.25;;;22.20;37.90;;;;;;5140843;27;20043;-62
2023/02/14 11:28:48;;;;;;;20.30;13.95;;;22.30;37.80;;;;;;5141023;27;20082;-62
2023/02/14 11:31:25;;;;;;;22.45;16.38;;;22.40;38.20;;;;;;5140664;27;20586;-58
2023/02/14 11:33:53;;;;;;;17.15;14.73;;;22.40;37.80;;;;;;5138512;27;20519;-60
2023/02/14 11:36:20;;;;;;;20.58;15.38;;;22.50;37.70;;;;;;5127007;27;20039;-60
2023/02/14 11:38:56;;;;;;;21.10;16.90;;;22.60;37.50;;;;;;5126747;27;20083;-56
2023/02/14 11:41:25;;;;;;;;;;;22.70;37.20;;;;;;5127142;27;20050;-62
2023/02/14 11:44:09;;;;;;;16.90;14.25;;;22.80;37.50;;;;;;5108194;27;19927;-61
2023/02/14 11:46:37;;;;;;;17.92;14.13;;;22.90;37.20;;;;;;5107290;27;20044;-61
2023/02/14 11:49:08;;;;;;;20.35;13.82;;;23.00;37.00;;;;;;5108160;27;20070;-57
2023/02/14 11:51:39;;;;;;;18.05;13.70;;;23.20;37.00;;;;;;5125362;27;20047;-65
2023/02/14 11:54:11;;;;;;;14.82;10.45;;;23.30;36.70;;;;;;5127149;27;20043;-64
2023/02/14 11:56:52;;;;;;;13.45;10.52;;;23.40;36.90;;;;;;5128246;27;20840;-65
2023/02/14 11:59:31;;;;;;;15.38;11.02;;;23.50;37.00;;;;;;5128301;27;20043;-65
2023/02/14 12:02:02;;;;;;;11.68;10.48;;;23.50;37.00;;;;;;5108299;27;20586;-65
2023/02/14 12:04:34;;;;;;;12.27;11.00;;;23.50;37.10;;;;;;5126727;27;20051;-63
2023/02/14 12:07:15;;;;;;;14.60;9.13;;;23.50;37.10;;;;;;5120815;27;20044;-62
2023/02/14 12:09:43;;;;;;;13.90;10.60;;;23.60;37.20;;;;;;5119277;27;20047;-62
2023/02/14 12:12:20;;;;;;;17.65;11.05;;;23.50;37.20;;;;;;5128502;27;20039;-62
2023/02/14 12:14:47;;;;;;;12.18;9.70;;;23.60;37.20;;;;;;5128602;27;20039;-63
2023/02/14 12:17:28;;;;;;;14.43;10.05;;;23.60;37.30;;;;;;5128349;27;20041;-65
2023/02/14 12:20:03;;;;;;;14.20;11.00;;;23.60;37.30;;;;;;5125221;27;20130;-63
2023/02/14 12:22:35;;;;;;;11.60;8.85;;;23.60;37.30;;;;;;5128215;27;20039;-64
2023/02/14 12:25:09;;;;;;;10.75;8.95;;;23.60;37.30;;;;;;5127578;27;20124;-66
2023/02/14 12:27:47;;;;;;;11.77;9.88;;;23.60;37.30;;;;;;5128320;27;20043;-65
2023/02/14 12:30:17;;;;;;;9.82;8.82;;;23.60;37.30;;;;;;5127977;27;20726;-65
2023/02/14 12:32:49;;;;;;;11.40;10.23;;;23.60;37.30;;;;;;5128095;27;20070;-65
2023/02/14 12:35:18;;;;;;;9.23;7.32;;;23.60;37.30;;;;;;5128093;27;20046;-65
2023/02/14 12:38:00;;;;;;;9.77;7.95;;;23.60;37.30;;;;;;5127830;27;20138;-65
2023/02/14 12:40:39;;;;;;;8.65;7.22;;;23.60;37.30;;;;;;5127899;27;20067;-67
2023/02/14 12:43:31;;;;;;;11.50;8.95;;;23.60;37.30;;;;;;5124276;27;20051;-68
2023/02/14 12:46:11;;;;;;;9.95;7.30;;;23.60;37.30;;;;;;5126634;27;20487;-68
2023/02/14 12:48:52;;;;;;;8.93;7.05;;;23.60;37.30;;;;;;5126771;27;20804;-65
2023/02/14 12:51:25;;;;;;;7.75;6.40;;;23.60;37.40;;;;;;5092419;27;20051;-66
2023/02/14 12:54:19;;;;;;;10.13;8.00;;;23.60;37.40;;;;;;5127683;27;20058;-66
2023/02/14 12:56:54;;;;;;;6.95;6.32;;;23.60;37.40;;;;;;5108634;27;20043;-66
2023/02/14 12:59:29;;;;;;;8.38;7.57;;;23.70;37.50;;;;;;5127358;27;20043;-68
2023/02/14 13:02:13;;;;;;;7.47;6.50;;;23.70;37.50;;;;;;5127450;27;20051;-65
2023/02/14 13:04:56;;;;;;;7.18;6.35;;;23.70;37.50;;;;;;5115436;27;20413;-66
2023/02/14 13:07:45;;;;;;;8.27;6.63;;;23.70;37.40;;;;;;5107091;28;20489;-65
2023/02/14 13:10:21;;;;;;;10.10;6.28;;;23.70;37.50;;;;;;5104687;28;20046;-66
2023/02/14 13:12:59;;;;;;;9.77;7.28;;;23.70;37.50;;;;;;5106692;27;20114;-65
2023/02/14 13:16:23;;;;;;;12.20;8.68;;;23.80;36.90;;;;;;5133819;27;20388;-67